createdAt,value
2019-01-16T00:01:43.130Z,94.56
2019-01-16T00:04:28.540Z,94.52
2019-01-16T00:06:58.620Z,94.32
2019-01-16T00:09:31.420Z,94.28
2019-01-16T00:12:10.646Z,94.29
2019-01-16T00:14:43.222Z,94.25
2019-01-16T00:17:29.507Z,94.38
2019-01-16T00:19:59.614Z,94.08
2019-01-16T00:22:35.534Z,93.99
2019-01-16T00:25:06.736Z,94.26
2019-01-16T00:27:48.820Z,94.19
2019-01-16T00:30:24.896Z,93.88
2019-01-16T00:32:57.985Z,93.66
2019-01-16T00:35:37.108Z,93.75
2019-01-16T00:38:12.780Z,93.74
2019-01-16T00:40:48.431Z,93.55
2019-01-16T00:43:24.574Z,93.28
2019-01-16T00:46:00.754Z,92.82
2019-01-16T00:48:30.832Z,92.89
2019-01-16T00:51:17.182Z,92.93
2019-01-16T00:53:47.268Z,92.88
2019-01-16T00:56:33.532Z,92.94
2019-01-16T00:59:19.868Z,92.74
2019-01-16T01:01:52.594Z,92.78
2019-01-16T01:04:25.306Z,92.68
2019-01-16T01:06:55.422Z,92.55
2019-01-16T01:09:28.331Z,92.73
2019-01-16T01:11:58.421Z,92.68
2019-01-16T01:14:31.229Z,92.73
2019-01-16T01:17:17.587Z,92.61
2019-01-16T01:20:00.097Z,92.83
2019-01-16T01:22:30.379Z,93.29
2019-01-16T01:25:09.430Z,93.44
2019-01-16T01:27:45.439Z,93.45
2019-01-16T01:30:18.684Z,93.60
2019-01-16T01:32:51.522Z,93.60
2019-01-16T01:35:24.556Z,93.59
2019-01-16T01:37:54.651Z,93.50
2019-01-16T01:40:24.757Z,93.58
2019-01-16T01:42:54.841Z,93.78
2019-01-16T01:45:43.323Z,93.68
2019-01-16T01:48:13.410Z,93.69
2019-01-16T01:50:46.219Z,93.51
2019-01-16T01:53:16.317Z,93.50
2019-01-16T01:55:46.417Z,93.47
2019-01-16T01:58:28.443Z,93.27
2019-01-16T02:01:04.473Z,92.99
2019-01-16T02:03:40.196Z,92.87
2019-01-16T02:06:10.303Z,92.76
2019-01-16T02:08:40.392Z,92.75
2019-01-16T02:11:16.211Z,92.77
2019-01-16T02:13:49.081Z,92.68
2019-01-16T02:16:22.214Z,92.85
2019-01-16T02:19:04.397Z,92.76
2019-01-16T02:21:50.995Z,93.07
2019-01-16T02:24:36.419Z,93.28
2019-01-16T02:27:09.253Z,93.42
2019-01-16T02:29:55.779Z,93.42
2019-01-16T02:32:25.893Z,93.20
2019-01-16T02:35:14.068Z,93.34
2019-01-16T02:37:46.942Z,93.30
2019-01-16T02:40:17.058Z,93.28
2019-01-16T02:43:02.227Z,93.44
2019-01-16T02:45:37.899Z,93.38
2019-01-16T02:48:13.756Z,93.62
2019-01-16T02:50:49.863Z,93.81
2019-01-16T02:53:28.966Z,94.11
2019-01-16T02:56:08.128Z,94.69
2019-01-16T02:58:40.966Z,94.63
2019-01-16T03:01:11.068Z,94.86
2019-01-16T03:03:46.715Z,95.04
2019-01-16T03:06:28.842Z,94.86
2019-01-16T03:09:10.770Z,95.12
2019-01-16T03:11:57.321Z,95.41
2019-01-16T03:14:33.354Z,95.60
2019-01-16T03:17:19.779Z,95.82
2019-01-16T03:20:01.766Z,96.14
2019-01-16T03:22:37.936Z,96.39
2019-01-16T03:25:20.510Z,96.65
2019-01-16T03:27:53.328Z,97.45
2019-01-16T03:30:23.429Z,97.57
2019-01-16T03:33:10.198Z,97.41
2019-01-16T03:35:52.232Z,97.70
2019-01-16T03:38:28.060Z,97.75
2019-01-16T03:41:14.604Z,97.94
2019-01-16T03:44:02.938Z,98.15
2019-01-16T03:46:33.047Z,98.10
2019-01-16T03:49:19.794Z,98.00
2019-01-16T03:51:55.904Z,98.06
2019-01-16T03:54:41.851Z,97.89
2019-01-16T03:57:27.131Z,97.68
2019-01-16T04:00:00.282Z,97.69
2019-01-16T04:02:33.143Z,97.74
2019-01-16T04:05:06.230Z,97.91
2019-01-16T04:07:42.050Z,98.08
2019-01-16T04:10:16.828Z,97.30
2019-01-16T04:13:03.378Z,97.21
2019-01-16T04:15:36.470Z,97.21
2019-01-16T04:18:23.274Z,97.04
2019-01-16T04:20:53.424Z,97.23
2019-01-16T04:23:25.923Z,96.89
2019-01-16T04:26:12.405Z,96.78
2019-01-16T04:29:00.363Z,96.50
2019-01-16T04:31:30.453Z,96.79
2019-01-16T04:34:15.408Z,95.98
2019-01-16T04:36:48.250Z,95.86
2019-01-16T04:39:34.758Z,95.58
2019-01-16T04:42:10.682Z,95.44
2019-01-16T04:44:43.396Z,95.40
2019-01-16T04:47:16.217Z,95.15
2019-01-16T04:49:55.124Z,95.07
2019-01-16T04:52:37.094Z,94.72
2019-01-16T04:55:10.961Z,94.29
2019-01-16T04:57:46.709Z,94.45
2019-01-16T05:00:25.778Z,94.32
2019-01-16T05:02:55.849Z,94.12
2019-01-16T05:05:36.133Z,93.51
2019-01-16T05:08:06.391Z,93.56
2019-01-16T05:10:36.527Z,93.57
2019-01-16T05:13:15.596Z,93.12
2019-01-16T05:15:45.963Z,93.18
2019-01-16T05:18:16.043Z,92.88
2019-01-16T05:20:58.248Z,92.59
2019-01-16T05:23:28.324Z,92.51
2019-01-16T05:26:10.195Z,92.22
2019-01-16T05:28:42.980Z,91.90
2019-01-16T05:31:18.805Z,91.56
2019-01-16T05:33:51.593Z,91.60
2019-01-16T05:36:36.707Z,91.16
2019-01-16T05:39:11.186Z,90.61
2019-01-16T05:41:58.447Z,90.09
2019-01-16T05:44:28.544Z,90.27
2019-01-16T05:46:58.657Z,89.78
2019-01-16T05:49:31.678Z,89.66
2019-01-16T05:52:10.594Z,89.39
2019-01-16T05:54:40.681Z,88.55
2019-01-16T05:57:10.795Z,88.78
2019-01-16T05:59:53.107Z,88.56
2019-01-16T06:02:23.207Z,88.55
2019-01-16T06:04:55.998Z,88.47
2019-01-16T06:07:42.203Z,87.34
2019-01-16T06:10:23.384Z,86.96
2019-01-16T06:13:09.985Z,87.15
2019-01-16T06:15:40.081Z,86.76
2019-01-16T06:18:12.905Z,87.29
2019-01-16T06:20:43.065Z,86.85
2019-01-16T06:23:25.141Z,86.53
2019-01-16T06:25:55.220Z,86.26
2019-01-16T06:28:25.343Z,85.92
2019-01-16T06:31:11.642Z,86.18
2019-01-16T06:33:58.165Z,86.23
2019-01-16T06:36:40.559Z,86.60
2019-01-16T06:39:10.886Z,86.60
2019-01-16T06:41:46.965Z,86.31
2019-01-16T06:44:17.080Z,86.97
2019-01-16T06:46:47.175Z,86.93
2019-01-16T06:49:29.151Z,86.97
2019-01-16T06:52:03.513Z,87.58
2019-01-16T06:54:46.501Z,87.76
2019-01-16T06:57:16.596Z,87.59
2019-01-16T06:59:55.644Z,87.65
2019-01-16T07:02:25.774Z,87.75
2019-01-16T07:04:55.866Z,88.27
2019-01-16T07:07:44.294Z,87.99
2019-01-16T07:10:14.619Z,88.02
2019-01-16T07:12:47.477Z,88.03
2019-01-16T07:15:26.761Z,88.01
2019-01-16T07:18:11.590Z,88.00
2019-01-16T07:20:41.722Z,88.04
2019-01-16T07:23:28.215Z,88.11
2019-01-16T07:25:58.341Z,88.28
2019-01-16T07:28:34.164Z,88.24
2019-01-16T07:31:19.012Z,88.35
2019-01-16T07:34:03.870Z,88.09
2019-01-16T07:36:33.996Z,87.59
2019-01-16T07:39:16.285Z,88.03
2019-01-16T07:42:01.355Z,87.65
2019-01-16T07:44:31.473Z,87.17
2019-01-16T07:47:18.034Z,87.23
2019-01-16T07:50:03.458Z,87.25
2019-01-16T07:52:36.534Z,87.42
2019-01-16T07:55:27.287Z,87.39
2019-01-16T07:58:00.124Z,87.23
2019-01-16T08:00:37.711Z,86.73
2019-01-16T08:03:10.733Z,87.09
2019-01-16T08:05:43.774Z,86.66
2019-01-16T08:08:30.253Z,86.80
2019-01-16T08:11:02.974Z,86.58
2019-01-16T08:13:34.039Z,87.19
2019-01-16T08:16:20.907Z,87.11
2019-01-16T08:19:07.361Z,87.22
2019-01-16T08:21:53.242Z,87.10
2019-01-16T08:24:39.920Z,86.50
2019-01-16T08:27:22.352Z,86.55
2019-01-16T08:30:01.470Z,86.76
2019-01-16T08:32:47.935Z,87.17
2019-01-16T08:35:18.192Z,86.91
2019-01-16T08:37:54.457Z,86.57
2019-01-16T08:40:36.537Z,86.26
2019-01-16T08:43:22.848Z,85.77
2019-01-16T08:45:55.526Z,85.80
2019-01-16T08:48:25.623Z,85.90
2019-01-16T08:50:55.777Z,85.62
2019-01-16T08:53:25.843Z,86.16
2019-01-16T08:56:12.102Z,85.97
2019-01-16T08:58:42.193Z,85.56
2019-01-16T09:01:32.495Z,85.83
2019-01-16T09:04:15.774Z,85.18
2019-01-16T09:06:51.921Z,85.19
2019-01-16T09:09:24.819Z,85.88
2019-01-16T09:12:09.960Z,85.67
2019-01-16T09:14:55.943Z,86.02
2019-01-16T09:17:42.694Z,85.70
2019-01-16T09:20:19.849Z,85.50
2019-01-16T09:22:58.921Z,85.91
2019-01-16T09:25:29.033Z,85.93
2019-01-16T09:27:59.146Z,86.41
2019-01-16T09:30:44.475Z,86.33
2019-01-16T09:33:23.523Z,86.26
2019-01-16T09:35:53.629Z,85.50
2019-01-16T09:38:32.878Z,86.18
2019-01-16T09:41:03.010Z,86.65
2019-01-16T09:43:38.843Z,86.28
2019-01-16T09:46:08.943Z,86.01
2019-01-16T09:48:48.315Z,86.63
2019-01-16T09:51:27.519Z,86.74
2019-01-16T09:54:15.423Z,87.57
2019-01-16T09:57:01.951Z,87.26
2019-01-16T09:59:44.173Z,87.18
2019-01-16T10:02:30.471Z,87.31
2019-01-16T10:05:09.842Z,87.90
2019-01-16T10:07:39.916Z,87.97
2019-01-16T10:10:12.609Z,88.11
2019-01-16T10:12:56.207Z,87.63
2019-01-16T10:15:35.098Z,87.26
2019-01-16T10:18:21.810Z,87.45
2019-01-16T10:20:55.860Z,87.81
2019-01-16T10:23:26.238Z,86.75
2019-01-16T10:26:11.382Z,86.50
2019-01-16T10:28:59.565Z,87.43
2019-01-16T10:31:29.653Z,86.51
2019-01-16T10:34:02.735Z,86.28
2019-01-16T10:36:32.823Z,85.88
2019-01-16T10:39:05.624Z,86.79
2019-01-16T10:41:41.658Z,87.14
2019-01-16T10:44:20.796Z,85.80
2019-01-16T10:46:50.879Z,85.84
2019-01-16T10:49:24.798Z,86.39
2019-01-16T10:52:03.992Z,86.18
2019-01-16T10:54:45.949Z,85.76
2019-01-16T10:57:27.744Z,85.51
2019-01-16T11:00:06.820Z,85.49
2019-01-16T11:02:48.595Z,84.35
2019-01-16T11:05:34.610Z,84.20
2019-01-16T11:08:07.614Z,84.68
2019-01-16T11:10:49.534Z,84.79
2019-01-16T11:13:22.598Z,84.40
2019-01-16T11:16:01.404Z,84.85
2019-01-16T11:18:47.727Z,84.29
2019-01-16T11:21:33.766Z,84.46
2019-01-16T11:24:03.838Z,84.14
2019-01-16T11:26:40.158Z,84.06
2019-01-16T11:29:10.262Z,83.50
2019-01-16T11:31:43.040Z,83.65
2019-01-16T11:34:13.201Z,83.16
2019-01-16T11:36:43.312Z,82.74
2019-01-16T11:39:13.397Z,82.77
2019-01-16T11:41:46.460Z,82.69
2019-01-16T11:44:22.379Z,82.88
2019-01-16T11:47:04.581Z,83.04
2019-01-16T11:49:51.056Z,82.50
2019-01-16T11:52:21.184Z,82.40
2019-01-16T11:54:51.276Z,81.96
2019-01-16T11:57:36.369Z,82.40
2019-01-16T12:00:09.505Z,81.94
2019-01-16T12:02:50.343Z,81.44
2019-01-16T12:05:26.442Z,81.37
2019-01-16T12:08:05.519Z,80.83
2019-01-16T12:10:47.702Z,81.34
2019-01-16T12:13:36.119Z,81.26
2019-01-16T12:16:09.087Z,81.28
2019-01-16T12:18:41.938Z,82.11
2019-01-16T12:21:28.473Z,81.79
2019-01-16T12:23:58.642Z,81.29
2019-01-16T12:26:44.025Z,81.42
2019-01-16T12:29:17.615Z,81.30
2019-01-16T12:31:47.712Z,81.37
2019-01-16T12:34:24.825Z,80.81
2019-01-16T12:37:03.798Z,81.13
2019-01-16T12:39:50.135Z,80.95
2019-01-16T12:42:26.221Z,81.37
2019-01-16T12:45:02.573Z,80.91
2019-01-16T12:47:44.388Z,81.39
2019-01-16T12:50:31.675Z,81.51
2019-01-16T12:53:17.153Z,80.87
2019-01-16T12:56:05.438Z,80.92
2019-01-16T12:58:41.281Z,81.00
2019-01-16T13:01:23.381Z,81.16
2019-01-16T13:03:56.148Z,80.77
2019-01-16T13:06:44.307Z,80.69
2019-01-16T13:09:20.226Z,80.56
2019-01-16T13:12:01.961Z,80.78
2019-01-16T13:14:48.422Z,80.81
2019-01-16T13:17:18.500Z,80.20
2019-01-16T13:19:57.469Z,80.16
2019-01-16T13:22:36.273Z,80.33
2019-01-16T13:25:25.683Z,80.40
2019-01-16T13:28:01.704Z,80.81
2019-01-16T13:30:34.978Z,81.48
2019-01-16T13:33:11.190Z,81.53
2019-01-16T13:35:57.450Z,80.67
2019-01-16T13:38:43.976Z,80.75
2019-01-16T13:41:14.083Z,81.27
2019-01-16T13:43:50.016Z,81.15
2019-01-16T13:46:23.082Z,80.67
2019-01-16T13:49:04.846Z,80.94
2019-01-16T13:51:34.956Z,81.25
2019-01-16T13:54:14.119Z,80.99
2019-01-16T13:57:00.428Z,80.91
2019-01-16T13:59:42.414Z,81.88
2019-01-16T14:02:27.468Z,81.83
2019-01-16T14:04:57.547Z,81.36
2019-01-16T14:07:27.640Z,81.37
2019-01-16T14:10:12.693Z,81.73
2019-01-16T14:12:45.366Z,81.83
2019-01-16T14:15:16.446Z,81.57
2019-01-16T14:17:55.606Z,82.44
2019-01-16T14:20:31.690Z,81.89
2019-01-16T14:23:07.548Z,81.87
2019-01-16T14:25:52.709Z,82.69
2019-01-16T14:28:25.777Z,82.01
2019-01-16T14:30:55.920Z,82.29
2019-01-16T14:33:41.076Z,83.11
2019-01-16T14:36:27.471Z,81.70
2019-01-16T14:39:06.559Z,81.97
2019-01-16T14:41:36.637Z,81.78
2019-01-16T14:44:12.932Z,81.96
2019-01-16T14:46:51.968Z,81.86
2019-01-16T14:49:33.792Z,82.86
2019-01-16T14:52:03.894Z,82.14
2019-01-16T14:54:34.010Z,81.55
2019-01-16T14:57:12.556Z,81.21
2019-01-16T14:59:42.665Z,81.10
2019-01-16T15:02:15.311Z,81.92
2019-01-16T15:04:45.447Z,81.45
2019-01-16T15:07:31.882Z,82.17
2019-01-16T15:10:04.786Z,82.00
2019-01-16T15:12:34.873Z,82.05
2019-01-16T15:15:08.326Z,81.81
2019-01-16T15:17:44.115Z,81.48
2019-01-16T15:20:14.396Z,81.36
2019-01-16T15:22:44.480Z,81.68
2019-01-16T15:25:30.650Z,81.58
2019-01-16T15:28:12.294Z,80.75
2019-01-16T15:30:47.843Z,81.11
2019-01-16T15:33:23.670Z,81.16
2019-01-16T15:36:11.890Z,81.34
2019-01-16T15:38:41.983Z,80.53
2019-01-16T15:41:12.060Z,81.24
2019-01-16T15:44:00.101Z,80.95
2019-01-16T15:46:30.203Z,81.03
2019-01-16T15:49:00.310Z,81.68
2019-01-16T15:51:45.423Z,80.98
2019-01-16T15:54:23.880Z,81.17
2019-01-16T15:57:07.067Z,81.16
2019-01-16T15:59:37.178Z,80.81
2019-01-16T16:02:13.291Z,80.63
2019-01-16T16:04:52.214Z,80.45
2019-01-16T16:07:38.503Z,80.41
2019-01-16T16:10:20.785Z,80.26
2019-01-16T16:12:53.838Z,81.00
2019-01-16T16:15:41.828Z,80.43
2019-01-16T16:18:21.231Z,80.16
2019-01-16T16:20:54.367Z,79.96
2019-01-16T16:23:33.657Z,80.40
2019-01-16T16:26:18.443Z,80.42
2019-01-16T16:28:57.461Z,79.77
2019-01-16T16:31:45.583Z,79.81
2019-01-16T16:34:15.679Z,80.40
2019-01-16T16:36:45.770Z,79.70
2019-01-16T16:39:15.877Z,79.05
2019-01-16T16:41:57.867Z,79.71
2019-01-16T16:44:42.678Z,79.91
2019-01-16T16:47:15.237Z,79.50
2019-01-16T16:49:48.381Z,79.78
2019-01-16T16:52:25.959Z,79.94
2019-01-16T16:55:02.390Z,78.76
2019-01-16T16:57:41.230Z,78.85
2019-01-16T17:00:13.937Z,78.98
2019-01-16T17:02:58.426Z,78.33
2019-01-16T17:05:28.713Z,78.48
2019-01-16T17:07:58.785Z,78.82
2019-01-16T17:10:31.591Z,79.24
2019-01-16T17:13:01.740Z,78.42
2019-01-16T17:15:48.081Z,77.76
2019-01-16T17:18:24.309Z,77.94
2019-01-16T17:21:10.439Z,78.60
2019-01-16T17:23:55.469Z,77.80
2019-01-16T17:26:25.574Z,78.65
2019-01-16T17:28:55.652Z,77.92
2019-01-16T17:31:31.492Z,77.51
2019-01-16T17:34:04.668Z,77.53
2019-01-16T17:36:51.042Z,77.47
2019-01-16T17:39:24.058Z,76.90
2019-01-16T17:42:06.174Z,76.73
2019-01-16T17:44:52.327Z,76.73
2019-01-16T17:47:22.473Z,76.84
2019-01-16T17:49:56.369Z,77.08
2019-01-16T17:52:41.831Z,76.56
2019-01-16T17:55:23.917Z,75.82
2019-01-16T17:57:56.728Z,76.26
2019-01-16T18:00:36.010Z,76.90
2019-01-16T18:03:06.186Z,75.80
2019-01-16T18:05:52.128Z,75.38
2019-01-16T18:08:25.436Z,74.87
2019-01-16T18:11:11.980Z,74.86
2019-01-16T18:13:42.060Z,74.72
2019-01-16T18:16:20.919Z,75.41
2019-01-16T18:18:51.040Z,74.88
2019-01-16T18:21:24.153Z,74.76
2019-01-16T18:24:06.481Z,74.30
2019-01-16T18:26:39.521Z,74.01
2019-01-16T18:29:09.631Z,74.17
2019-01-16T18:31:39.768Z,74.10
2019-01-16T18:34:09.862Z,73.82
2019-01-16T18:36:56.188Z,74.08
2019-01-16T18:39:32.344Z,74.19
2019-01-16T18:42:05.107Z,73.98
2019-01-16T18:44:35.193Z,73.38
2019-01-16T18:47:23.765Z,73.98
2019-01-16T18:50:06.028Z,74.81
2019-01-16T18:52:54.182Z,73.48
2019-01-16T18:55:36.496Z,74.84
2019-01-16T18:58:22.179Z,73.80
2019-01-16T19:01:07.257Z,74.14
2019-01-16T19:03:37.391Z,74.40
2019-01-16T19:06:13.751Z,73.51
2019-01-16T19:08:46.575Z,73.49
2019-01-16T19:11:19.355Z,74.22
2019-01-16T19:13:49.571Z,74.06
2019-01-16T19:16:25.616Z,73.56
2019-01-16T19:19:04.817Z,73.56
2019-01-16T19:21:37.663Z,72.90
2019-01-16T19:24:10.918Z,72.40
2019-01-16T19:26:43.956Z,72.32
2019-01-16T19:29:31.931Z,73.25
2019-01-16T19:32:02.101Z,72.71
2019-01-16T19:34:37.883Z,73.14
2019-01-16T19:37:20.345Z,72.82
2019-01-16T19:39:53.204Z,73.01
2019-01-16T19:42:23.287Z,72.72
2019-01-16T19:44:53.441Z,73.26
2019-01-16T19:47:39.880Z,73.07
2019-01-16T19:50:13.073Z,72.50
2019-01-16T19:52:43.196Z,72.58
2019-01-16T19:55:31.537Z,72.96
2019-01-16T19:58:10.530Z,72.31
2019-01-16T20:00:40.647Z,71.37
2019-01-16T20:03:17.880Z,71.72
2019-01-16T20:05:47.985Z,71.41
2019-01-16T20:08:29.821Z,72.04
2019-01-16T20:10:59.949Z,72.35
2019-01-16T20:13:32.727Z,71.79
2019-01-16T20:16:05.645Z,73.03
2019-01-16T20:18:35.743Z,71.76
2019-01-16T20:21:15.011Z,71.83
2019-01-16T20:23:48.167Z,72.28
2019-01-16T20:26:24.067Z,71.56
2019-01-16T20:28:59.869Z,72.92
2019-01-16T20:31:38.919Z,72.43
2019-01-16T20:34:11.731Z,72.50
2019-01-16T20:36:48.496Z,72.49
2019-01-16T20:39:27.959Z,72.42
2019-01-16T20:42:00.841Z,72.61
2019-01-16T20:44:43.073Z,72.64
2019-01-16T20:47:30.027Z,72.48
2019-01-16T20:50:16.126Z,72.04
2019-01-16T20:52:46.250Z,72.54
2019-01-16T20:55:22.422Z,72.68
2019-01-16T20:57:58.851Z,72.16
2019-01-16T21:00:34.914Z,72.14
2019-01-16T21:03:05.916Z,72.34
2019-01-16T21:05:40.417Z,72.92
2019-01-16T21:08:13.595Z,73.60
2019-01-16T21:10:58.513Z,72.89
2019-01-16T21:13:28.619Z,72.77
2019-01-16T21:16:01.468Z,73.38
2019-01-16T21:18:31.628Z,73.43
2019-01-16T21:21:01.742Z,73.86
2019-01-16T21:23:34.599Z,74.55
2019-01-16T21:26:04.703Z,74.87
2019-01-16T21:28:50.523Z,74.19
2019-01-16T21:31:29.358Z,74.91
2019-01-16T21:34:09.690Z,75.34
2019-01-16T21:36:45.973Z,75.48
2019-01-16T21:39:17.416Z,76.27
2019-01-16T21:41:53.230Z,76.38
2019-01-16T21:44:27.587Z,77.20
2019-01-16T21:47:09.550Z,77.37
2019-01-16T21:49:48.541Z,77.59
2019-01-16T21:52:18.674Z,77.54
2019-01-16T21:54:54.301Z,77.24
2019-01-16T21:57:24.404Z,77.93
2019-01-16T22:00:12.806Z,77.49
2019-01-16T22:02:59.183Z,78.22
2019-01-16T22:05:29.389Z,78.33
2019-01-16T22:07:59.482Z,78.88
2019-01-16T22:10:29.663Z,78.41
2019-01-16T22:12:59.748Z,78.56
2019-01-16T22:15:45.158Z,78.84
2019-01-16T22:18:15.314Z,78.81
2019-01-16T22:20:45.393Z,79.06
2019-01-16T22:23:15.527Z,78.92
2019-01-16T22:25:54.276Z,79.20
2019-01-16T22:28:27.336Z,79.72
2019-01-16T22:31:00.158Z,79.45
2019-01-16T22:33:48.038Z,79.11
2019-01-16T22:36:24.122Z,80.00
2019-01-16T22:39:00.431Z,80.57
2019-01-16T22:41:39.512Z,80.27
2019-01-16T22:44:12.438Z,80.40
2019-01-16T22:46:42.522Z,80.71
2019-01-16T22:49:15.090Z,80.83
2019-01-16T22:51:45.246Z,80.49
2019-01-16T22:54:21.186Z,81.47
2019-01-16T22:57:09.416Z,81.43
2019-01-16T22:59:54.555Z,81.03
2019-01-16T23:02:40.971Z,81.50
2019-01-16T23:05:17.426Z,81.39
2019-01-16T23:07:53.375Z,81.95
2019-01-16T23:10:26.158Z,81.47
2019-01-16T23:13:00.063Z,82.56
2019-01-16T23:15:35.920Z,81.93
2019-01-16T23:18:06.114Z,81.78
2019-01-16T23:20:42.403Z,81.94
2019-01-16T23:23:21.491Z,81.63
2019-01-16T23:25:54.583Z,82.35
2019-01-16T23:28:42.967Z,82.51
2019-01-16T23:31:13.114Z,83.20
2019-01-16T23:33:43.213Z,82.50
2019-01-16T23:36:13.319Z,82.08
2019-01-16T23:38:58.726Z,82.42
2019-01-16T23:41:34.557Z,82.07
2019-01-16T23:44:04.657Z,82.82
2019-01-16T23:46:43.453Z,83.43
2019-01-16T23:49:16.170Z,82.81
2019-01-16T23:51:52.371Z,82.62
2019-01-16T23:54:28.379Z,82.65
2019-01-16T23:57:04.350Z,82.57
2019-01-16T23:59:34.461Z,82.83
